TAF KAOO
AMD KAOO 082131Z 0822/0918 29009KT 4SM -SN OVC020 FM082300 28012KT P6SM SCT025 OVC035 FM090500 27006KT P6SM BKN035 FM091300 18003KT P6SM SCT040=
METAR KAOO
WC KAOO
WS KAOO
WV KAOO